Time;durP1;ratioP1;P1;durP2;ratioP2;P2;SDS_P1;SDS_P2;PMS_P1;PMS_P2;Temp;Humidity;BMP_temperature;BMP_pressure;BME280_temperature;BME280_humidity;BME280_pressure;Samples;Min_cycle;Max_cycle;Signal;HPM_P1;HPM_P2
2023/04/13 00:02:20;;;;;;;6.22;3.40;;;5.30;99.90;;;;;;5042201;28;20183;-85
2023/04/13 00:04:49;;;;;;;7.35;3.42;;;5.40;99.90;;;;;;5041332;28;20127;-85
2023/04/13 00:07:18;;;;;;;5.15;3.40;;;5.40;99.90;;;;;;5059629;28;20159;-86
2023/04/13 00:09:46;;;;;;;4.82;3.47;;;5.50;99.90;;;;;;5024559;28;20080;-86
2023/04/13 00:12:13;;;;;;;8.43;3.67;;;5.50;99.90;;;;;;5026550;28;20460;-86
2023/04/13 00:14:39;;;;;;;7.00;4.03;;;5.60;99.90;;;;;;5040229;28;20059;-85
2023/04/13 00:17:05;;;;;;;4.85;3.47;;;5.70;99.90;;;;;;5042476;28;20717;-85
2023/04/13 00:19:35;;;;;;;5.10;3.50;;;5.80;99.90;;;;;;5056594;28;20094;-85
2023/04/13 00:22:03;;;;;;;5.13;3.80;;;5.80;99.90;;;;;;5024946;28;20067;-86
2023/04/13 00:24:28;;;;;;;8.52;4.05;;;5.90;99.90;;;;;;5041114;28;20037;-85
2023/04/13 00:26:55;;;;;;;5.72;3.72;;;5.90;99.90;;;;;;5042241;28;20048;-85
2023/04/13 00:29:25;;;;;;;4.93;3.85;;;5.90;99.90;;;;;;5037774;28;20406;-85
2023/04/13 00:31:50;;;;;;;5.90;3.65;;;5.90;99.90;;;;;;5026175;28;20416;-85
2023/04/13 00:34:16;;;;;;;6.45;4.03;;;6.00;99.90;;;;;;5041956;28;20045;-85
2023/04/13 00:36:41;;;;;;;6.30;4.03;;;6.00;99.90;;;;;;5057127;28;20061;-86
2023/04/13 00:39:07;;;;;;;5.45;4.25;;;6.00;99.90;;;;;;5055674;28;20052;-86
2023/04/13 00:41:33;;;;;;;6.10;3.65;;;6.00;99.90;;;;;;5042259;28;20033;-85
2023/04/13 00:43:59;;;;;;;6.95;4.00;;;6.00;99.90;;;;;;5024024;28;20040;-86
2023/04/13 00:46:28;;;;;;;6.65;4.30;;;6.00;99.90;;;;;;5037777;28;20850;-85
2023/04/13 00:48:57;;;;;;;7.13;4.28;;;6.00;99.90;;;;;;5040608;28;20041;-84
2023/04/13 00:51:22;;;;;;;7.65;4.43;;;6.00;99.90;;;;;;5056460;28;20535;-85
2023/04/13 00:53:48;;;;;;;5.57;4.45;;;6.10;99.90;;;;;;5024305;28;20131;-85
2023/04/13 00:56:14;;;;;;;5.15;3.95;;;6.10;99.90;;;;;;5023991;28;20463;-85
2023/04/13 00:58:41;;;;;;;8.25;5.03;;;6.20;99.90;;;;;;5040418;28;20040;-85
2023/04/13 01:01:06;;;;;;;7.40;4.55;;;6.20;99.90;;;;;;5024048;28;20108;-84
2023/04/13 01:03:32;;;;;;;9.27;5.10;;;6.20;99.90;;;;;;5040348;28;20572;-84
2023/04/13 01:06:27;;;;;;;10.25;4.75;;;6.20;99.90;;;;;;5041630;28;20079;-85
2023/04/13 01:09:20;;;;;;;7.00;4.60;;;6.20;99.90;;;;;;5039074;28;20049;-84
2023/04/13 01:12:07;;;;;;;8.98;5.13;;;6.20;99.90;;;;;;5039284;28;20378;-84
2023/04/13 01:14:39;;;;;;;6.82;4.97;;;6.20;99.90;;;;;;5021064;28;20037;-84
2023/04/13 01:17:15;;;;;;;7.07;5.22;;;6.20;99.90;;;;;;5041492;28;20041;-84
2023/04/13 01:19:56;;;;;;;6.03;4.85;;;6.20;99.90;;;;;;5023960;28;20051;-84
2023/04/13 01:22:28;;;;;;;7.00;4.90;;;6.20;99.90;;;;;;5022965;28;20128;-83
2023/04/13 01:25:04;;;;;;;6.45;4.75;;;6.30;99.90;;;;;;5040359;28;20514;-83
2023/04/13 01:27:50;;;;;;;5.53;3.63;;;6.30;99.90;;;;;;5057746;28;20033;-84
2023/04/13 01:30:23;;;;;;;6.43;4.00;;;6.20;99.90;;;;;;5024071;28;20455;-84
2023/04/13 01:32:53;;;;;;;5.25;3.80;;;6.30;99.90;;;;;;5038537;28;20124;-83
2023/04/13 01:35:21;;;;;;;5.68;3.85;;;6.30;99.90;;;;;;5041506;28;20063;-84
2023/04/13 01:37:49;;;;;;;6.75;4.00;;;6.30;99.90;;;;;;5038919;28;20115;-83
2023/04/13 01:40:14;;;;;;;6.70;3.63;;;6.20;99.90;;;;;;5039327;28;20045;-84
2023/04/13 01:42:42;;;;;;;5.35;3.30;;;6.20;99.90;;;;;;5040582;28;20041;-84
2023/04/13 01:45:16;;;;;;;6.05;3.45;;;6.20;99.90;;;;;;5054976;28;20044;-84
2023/04/13 01:47:53;;;;;;;;;;;6.30;99.90;;;;;;5041132;28;20048;-84
2023/04/13 01:50:31;;;;;;;5.70;3.00;;;6.30;99.90;;;;;;5057426;28;19927;-84
2023/04/13 01:53:06;;;;;;;4.97;3.13;;;6.20;99.90;;;;;;5054511;28;20061;-84
2023/04/13 01:55:36;;;;;;;6.70;3.00;;;6.30;99.90;;;;;;5024103;28;20492;-84
2023/04/13 01:58:03;;;;;;;6.05;2.92;;;6.30;99.90;;;;;;5056550;28;20462;-84
2023/04/13 02:00:35;;;;;;;7.78;3.90;;;6.30;99.90;;;;;;5022717;28;20083;-84
2023/04/13 02:03:05;;;;;;;4.97;3.17;;;6.20;99.90;;;;;;5057055;28;20029;-85
2023/04/13 02:05:32;;;;;;;6.28;3.13;;;6.20;99.90;;;;;;5055778;28;20041;-85
2023/04/13 02:07:57;;;;;;;5.18;2.75;;;6.20;99.90;;;;;;5056292;28;20044;-84
2023/04/13 02:10:23;;;;;;;4.63;2.90;;;6.30;99.90;;;;;;5056684;28;20499;-85
2023/04/13 02:12:49;;;;;;;3.28;2.47;;;6.30;99.90;;;;;;5056038;28;20377;-84
2023/04/13 02:15:14;;;;;;;4.95;2.85;;;6.30;99.90;;;;;;5022561;28;20385;-84
2023/04/13 02:17:41;;;;;;;4.30;2.72;;;6.30;99.90;;;;;;5040465;28;20282;-84
2023/04/13 02:20:11;;;;;;;4.20;3.30;;;6.30;99.90;;;;;;5023330;28;20124;-84
2023/04/13 02:22:38;;;;;;;3.95;2.70;;;6.30;99.90;;;;;;5026541;28;20041;-85
2023/04/13 02:25:07;;;;;;;3.78;2.50;;;6.30;99.90;;;;;;5027627;28;20060;-84
2023/04/13 02:27:34;;;;;;;5.22;2.70;;;6.40;99.90;;;;;;5060996;28;20076;-85
2023/04/13 02:30:00;;;;;;;4.25;2.22;;;6.30;99.90;;;;;;5057255;28;20040;-85
2023/04/13 02:32:28;;;;;;;3.20;2.17;;;6.30;99.90;;;;;;5059713;28;20049;-84
2023/04/13 02:34:54;;;;;;;4.25;2.40;;;6.30;99.90;;;;;;5043401;28;20041;-85
2023/04/13 02:37:19;;;;;;;4.45;2.15;;;6.40;99.90;;;;;;5060335;28;20397;-84
2023/04/13 02:39:48;;;;;;;3.67;2.50;;;6.40;99.90;;;;;;5058915;28;20044;-85
2023/04/13 02:42:15;;;;;;;3.80;2.30;;;6.40;99.90;;;;;;5042520;28;20296;-86
2023/04/13 02:44:40;;;;;;;4.22;2.20;;;6.40;99.90;;;;;;5025422;28;20033;-85
2023/04/13 02:47:06;;;;;;;5.25;2.80;;;6.30;99.90;;;;;;5031902;28;20388;-85
2023/04/13 02:49:32;;;;;;;4.78;2.42;;;6.30;99.90;;;;;;5043832;28;20492;-85
2023/04/13 02:51:58;;;;;;;5.45;2.30;;;6.40;99.90;;;;;;5058883;28;20106;-85
2023/04/13 02:54:23;;;;;;;4.25;2.30;;;6.40;99.90;;;;;;5057830;28;20044;-84
2023/04/13 02:56:49;;;;;;;7.15;2.20;;;6.40;99.90;;;;;;5026877;28;20032;-85
2023/04/13 02:59:15;;;;;;;5.13;2.00;;;6.40;99.90;;;;;;5041180;28;20072;-85
2023/04/13 03:01:41;;;;;;;6.68;2.40;;;6.40;99.90;;;;;;5043627;28;20469;-84
2023/04/13 03:04:08;;;;;;;3.95;2.20;;;6.40;99.90;;;;;;5041763;28;20037;-85
2023/04/13 03:06:33;;;;;;;2.85;1.90;;;6.40;99.90;;;;;;5026226;28;20052;-85
2023/04/13 03:09:00;;;;;;;4.07;2.10;;;6.50;99.90;;;;;;5026054;28;20073;-86
2023/04/13 03:11:26;;;;;;;4.53;2.63;;;6.40;99.90;;;;;;5058138;28;20136;-85
2023/04/13 03:13:56;;;;;;;5.43;2.20;;;6.50;99.90;;;;;;5074436;28;20120;-85
2023/04/13 03:16:23;;;;;;;5.22;2.45;;;6.40;99.90;;;;;;5058107;28;20116;-85
2023/04/13 03:18:50;;;;;;;3.67;2.35;;;6.40;99.90;;;;;;5042541;28;20480;-85
2023/04/13 03:21:15;;;;;;;4.20;2.22;;;6.50;99.90;;;;;;5058866;28;20041;-85
2023/04/13 03:23:42;;;;;;;3.25;2.42;;;6.50;99.90;;;;;;5041671;28;20110;-85
2023/04/13 03:26:08;;;;;;;7.32;2.40;;;6.50;99.90;;;;;;5024701;28;20531;-85
2023/04/13 03:28:37;;;;;;;3.13;2.15;;;6.50;99.90;;;;;;5042076;28;20040;-85
2023/04/13 03:31:02;;;;;;;5.25;2.22;;;6.50;99.90;;;;;;5056687;28;20270;-85
2023/04/13 03:33:28;;;;;;;5.28;2.40;;;6.60;99.90;;;;;;5026512;28;20323;-85
2023/04/13 03:35:54;;;;;;;3.92;2.33;;;6.50;99.90;;;;;;5058427;28;20064;-85
2023/04/13 03:38:20;;;;;;;3.17;2.10;;;6.60;99.90;;;;;;5042223;28;20045;-85
2023/04/13 03:40:46;;;;;;;3.95;2.20;;;6.50;99.90;;;;;;5027108;28;20136;-85
2023/04/13 03:43:11;;;;;;;5.88;2.50;;;6.60;99.90;;;;;;5043574;28;20039;-86
2023/04/13 03:45:37;;;;;;;2.90;2.20;;;6.60;99.90;;;;;;5040675;28;20514;-85
2023/04/13 03:48:06;;;;;;;5.10;2.78;;;6.60;99.90;;;;;;5041265;28;20404;-84
2023/04/13 03:50:31;;;;;;;5.43;2.50;;;6.60;99.90;;;;;;5041260;28;20527;-85
2023/04/13 03:52:57;;;;;;;3.22;2.55;;;6.60;99.90;;;;;;5058077;28;20041;-85
2023/04/13 03:55:23;;;;;;;4.03;2.35;;;6.60;99.90;;;;;;5041926;28;20040;-85
2023/04/13 03:57:48;;;;;;;3.72;2.33;;;6.70;99.90;;;;;;5024885;28;20229;-85
2023/04/13 04:00:14;;;;;;;5.75;2.70;;;6.60;99.90;;;;;;5057041;28;20045;-84
2023/04/13 04:02:41;;;;;;;3.17;2.63;;;6.60;99.90;;;;;;5041480;28;20238;-85
2023/04/13 04:05:06;;;;;;;4.88;2.58;;;6.70;99.90;;;;;;5071376;28;20048;-85
2023/04/13 04:07:32;;;;;;;4.03;2.47;;;6.70;99.90;;;;;;5058103;28;20040;-85
2023/04/13 04:09:58;;;;;;;4.15;2.72;;;6.60;99.90;;;;;;5058036;28;20319;-85
2023/04/13 04:12:23;;;;;;;4.68;2.50;;;6.70;99.90;;;;;;5026077;28;20149;-85
2023/04/13 04:14:49;;;;;;;4.07;2.55;;;6.70;99.90;;;;;;5039994;28;20041;-84
2023/04/13 04:17:15;;;;;;;3.50;2.85;;;6.70;99.90;;;;;;5058568;28;20064;-85
2023/04/13 04:19:40;;;;;;;3.65;2.70;;;6.70;99.90;;;;;;5040619;28;20358;-84
2023/04/13 04:22:06;;;;;;;4.60;2.53;;;6.70;99.90;;;;;;5058010;28;20033;-84
2023/04/13 04:24:32;;;;;;;5.00;2.92;;;6.70;99.90;;;;;;5023897;28;20112;-85
2023/04/13 04:27:01;;;;;;;5.20;2.53;;;6.60;99.90;;;;;;5025477;28;20400;-84
2023/04/13 04:29:33;;;;;;;5.50;2.60;;;6.60;99.90;;;;;;5023648;28;20154;-85
2023/04/13 04:32:03;;;;;;;6.32;2.67;;;6.60;99.90;;;;;;5041663;28;20159;-84
2023/04/13 04:34:29;;;;;;;3.88;2.63;;;6.60;99.90;;;;;;5024524;28;20059;-84
2023/04/13 04:36:55;;;;;;;3.78;2.58;;;6.50;99.90;;;;;;5057737;28;20179;-85
2023/04/13 04:39:21;;;;;;;5.07;2.40;;;6.40;99.90;;;;;;5023961;28;20072;-85
2023/04/13 04:41:54;;;;;;;3.72;2.50;;;6.40;99.90;;;;;;5041578;28;20083;-85
2023/04/13 04:44:24;;;;;;;4.75;2.60;;;6.30;99.90;;;;;;5054950;28;20083;-85
2023/04/13 04:46:53;;;;;;;4.22;2.42;;;6.20;99.90;;;;;;5040590;28;20375;-85
2023/04/13 04:49:20;;;;;;;4.07;2.60;;;6.20;99.90;;;;;;5074290;28;20048;-85
2023/04/13 04:51:50;;;;;;;4.15;2.60;;;6.10;99.90;;;;;;5040224;28;20448;-85
2023/04/13 04:54:17;;;;;;;4.82;3.13;;;6.10;99.90;;;;;;5039622;28;20033;-85
2023/04/13 04:56:44;;;;;;;4.53;2.92;;;6.00;99.90;;;;;;5041415;28;20037;-85
2023/04/13 04:59:10;;;;;;;6.68;3.00;;;6.10;99.90;;;;;;5039029;28;20508;-85
2023/04/13 05:01:35;;;;;;;5.55;3.40;;;6.20;99.90;;;;;;5059649;28;20079;-85
2023/04/13 05:04:01;;;;;;;6.05;3.53;;;6.30;99.90;;;;;;5042114;28;20036;-85
2023/04/13 05:06:31;;;;;;;4.82;3.83;;;6.30;99.90;;;;;;5056540;28;20040;-84
2023/04/13 05:09:01;;;;;;;6.28;3.95;;;6.40;99.90;;;;;;5040672;28;20069;-85
2023/04/13 05:11:28;;;;;;;6.38;4.30;;;6.40;99.90;;;;;;5023700;28;20041;-86
2023/04/13 05:13:55;;;;;;;7.47;4.47;;;6.40;99.90;;;;;;5026183;28;20102;-85
2023/04/13 05:16:21;;;;;;;8.63;4.57;;;6.40;99.90;;;;;;5041052;28;20040;-84
2023/04/13 05:18:47;;;;;;;8.50;4.85;;;6.40;99.90;;;;;;5024045;28;20033;-84
2023/04/13 05:21:14;;;;;;;6.85;4.40;;;6.40;99.90;;;;;;5023794;28;20069;-85
2023/04/13 05:23:41;;;;;;;7.95;4.78;;;6.40;99.90;;;;;;5022967;28;20033;-85
2023/04/13 05:26:10;;;;;;;6.43;4.10;;;6.50;99.90;;;;;;5028723;28;20032;-85
2023/04/13 05:28:37;;;;;;;6.93;4.22;;;6.60;99.90;;;;;;5056193;28;20091;-85
2023/04/13 05:31:05;;;;;;;7.60;4.53;;;6.60;99.90;;;;;;5055835;28;20105;-85
2023/04/13 05:33:33;;;;;;;9.70;5.13;;;6.60;99.90;;;;;;5040029;28;20033;-85
2023/04/13 05:35:59;;;;;;;9.95;5.03;;;6.70;99.90;;;;;;5057180;28;20040;-85
2023/04/13 05:38:25;;;;;;;6.35;4.32;;;6.70;99.90;;;;;;5023484;28;20049;-85
2023/04/13 05:40:53;;;;;;;5.38;4.15;;;6.60;99.90;;;;;;5022883;28;20126;-85
2023/04/13 05:43:19;;;;;;;7.18;4.22;;;6.70;99.90;;;;;;5036778;28;20052;-85
2023/04/13 05:45:45;;;;;;;7.80;4.85;;;6.70;99.90;;;;;;5054601;28;20048;-85
2023/04/13 05:48:12;;;;;;;9.27;4.20;;;6.80;99.90;;;;;;5023021;28;20119;-85
2023/04/13 05:50:37;;;;;;;6.45;4.45;;;6.70;99.90;;;;;;5040165;28;20041;-84
2023/04/13 05:53:12;;;;;;;6.90;4.25;;;6.80;99.90;;;;;;5039855;28;20037;-85
2023/04/13 05:55:41;;;;;;;7.70;3.88;;;6.90;99.90;;;;;;5039267;28;20044;-85
2023/04/13 05:58:07;;;;;;;6.88;4.35;;;7.00;99.90;;;;;;5043119;28;20044;-85
2023/04/13 06:00:33;;;;;;;7.50;4.00;;;7.00;99.90;;;;;;5043416;28;20049;-84
2023/04/13 06:03:00;;;;;;;7.47;4.50;;;7.00;99.90;;;;;;5043122;28;20380;-85
2023/04/13 06:05:27;;;;;;;6.07;4.25;;;7.20;99.90;;;;;;5044692;28;20120;-84
2023/04/13 06:07:53;;;;;;;7.20;3.95;;;7.30;99.90;;;;;;5045108;28;20037;-91
2023/04/13 06:10:18;;;;;;;8.30;4.35;;;7.40;99.90;;;;;;5029762;28;20382;-91
2023/04/13 06:12:47;;;;;;;5.35;3.55;;;7.40;99.90;;;;;;5030318;28;20124;-91
2023/04/13 06:15:13;;;;;;;10.15;4.60;;;7.50;99.90;;;;;;5029224;28;20056;-92
2023/04/13 06:17:40;;;;;;;6.10;3.90;;;7.50;99.90;;;;;;5029528;28;20044;-90
2023/04/13 06:20:07;;;;;;;6.53;4.07;;;7.60;99.90;;;;;;5045943;28;20428;-91
2023/04/13 06:22:33;;;;;;;8.30;4.13;;;7.50;99.90;;;;;;5062569;28;20126;-90
2023/04/13 06:25:00;;;;;;;7.70;4.40;;;7.50;99.90;;;;;;5064616;28;20499;-91
2023/04/13 06:27:25;;;;;;;6.30;4.30;;;7.50;99.90;;;;;;5028856;28;20033;-90
2023/04/13 06:29:51;;;;;;;8.85;3.90;;;7.70;99.90;;;;;;5062159;28;20416;-91
2023/04/13 06:32:17;;;;;;;6.22;3.90;;;7.70;99.90;;;;;;5045910;28;20074;-90
2023/04/13 06:34:44;;;;;;;7.28;3.92;;;7.60;99.90;;;;;;5030075;28;20048;-91
2023/04/13 06:37:10;;;;;;;8.07;4.60;;;7.80;99.90;;;;;;5029049;28;20585;-90
2023/04/13 06:39:36;;;;;;;8.77;4.68;;;7.80;99.90;;;;;;5044369;28;20254;-91
2023/04/13 06:42:05;;;;;;;8.25;3.95;;;7.70;99.90;;;;;;5045525;28;20207;-92
2023/04/13 06:44:31;;;;;;;9.13;3.97;;;7.60;99.90;;;;;;5029312;28;20146;-91
2023/04/13 06:46:57;;;;;;;7.72;3.63;;;7.60;99.90;;;;;;5029638;28;20122;-92
2023/04/13 06:49:22;;;;;;;11.32;4.43;;;7.70;99.90;;;;;;5028544;28;20051;-92
2023/04/13 06:51:48;;;;;;;7.93;4.63;;;7.90;99.90;;;;;;5045525;28;20041;-91
2023/04/13 06:54:14;;;;;;;9.80;5.25;;;7.90;99.90;;;;;;5028881;28;20120;-91
2023/04/13 06:56:40;;;;;;;7.82;4.57;;;7.90;99.90;;;;;;5046582;28;20128;-91
2023/04/13 06:59:05;;;;;;;8.20;3.95;;;7.90;99.90;;;;;;5028606;28;20048;-90
2023/04/13 07:01:31;;;;;;;8.43;4.45;;;8.00;99.90;;;;;;5029082;28;20036;-92
2023/04/13 07:03:57;;;;;;;7.70;4.40;;;8.30;99.90;;;;;;5028776;28;20029;-91
2023/04/13 07:06:23;;;;;;;6.90;3.72;;;8.60;99.90;;;;;;5062322;28;20067;-91
2023/04/13 07:08:49;;;;;;;8.93;4.07;;;8.50;99.90;;;;;;5045652;28;20433;-90
2023/04/13 07:11:15;;;;;;;9.93;4.93;;;8.40;99.90;;;;;;5029282;28;20047;-90
2023/04/13 07:13:40;;;;;;;6.72;4.00;;;8.30;99.90;;;;;;5045227;28;20408;-91
2023/04/13 07:16:07;;;;;;;8.23;3.83;;;8.20;99.90;;;;;;5045451;28;20071;-90
2023/04/13 07:18:34;;;;;;;10.30;4.32;;;8.10;99.90;;;;;;5061396;28;20036;-91
2023/04/13 07:21:00;;;;;;;10.38;4.65;;;8.10;99.90;;;;;;5076978;28;20052;-90
2023/04/13 07:23:26;;;;;;;11.48;6.00;;;8.20;99.90;;;;;;5059647;28;20052;-91
2023/04/13 07:25:52;;;;;;;6.05;4.13;;;8.20;99.90;;;;;;5065067;28;20063;-91
2023/04/13 07:28:17;;;;;;;5.90;3.58;;;8.30;99.90;;;;;;5059874;28;20063;-90
2023/04/13 07:30:44;;;;;;;7.63;3.40;;;8.20;99.90;;;;;;5044644;28;20041;-91
2023/04/13 07:33:10;;;;;;;9.70;3.50;;;8.40;99.90;;;;;;5027705;28;20140;-91
2023/04/13 07:35:36;;;;;;;7.03;3.47;;;8.40;99.90;;;;;;5045300;28;20139;-90
2023/04/13 07:38:02;;;;;;;7.78;3.50;;;8.60;99.90;;;;;;5044068;28;20068;-90
2023/04/13 07:40:28;;;;;;;7.68;3.70;;;8.70;99.90;;;;;;5060600;28;20052;-90
2023/04/13 07:42:53;;;;;;;5.82;3.08;;;8.90;99.90;;;;;;5027585;28;20453;-90
2023/04/13 07:45:19;;;;;;;8.02;2.92;;;8.90;99.90;;;;;;5028044;28;20132;-90
2023/04/13 07:47:49;;;;;;;6.18;2.83;;;8.80;99.90;;;;;;5028465;28;20111;-91
2023/04/13 07:50:16;;;;;;;6.05;3.22;;;8.90;99.90;;;;;;5063827;28;20458;-92
2023/04/13 07:52:42;;;;;;;6.82;2.70;;;8.80;99.90;;;;;;5043141;28;20087;-91
2023/04/13 07:55:08;;;;;;;7.78;2.88;;;9.20;99.90;;;;;;5044681;28;20033;-91
2023/04/13 07:57:35;;;;;;;6.18;2.60;;;9.40;99.90;;;;;;5044608;28;20098;-91
2023/04/13 08:00:05;;;;;;;6.55;2.40;;;9.60;99.90;;;;;;5026523;28;20044;-91
2023/04/13 08:02:30;;;;;;;5.57;2.70;;;9.70;99.90;;;;;;5061306;28;20037;-91
2023/04/13 08:04:57;;;;;;;3.78;2.10;;;9.60;99.90;;;;;;5061474;28;20523;-91
2023/04/13 08:07:23;;;;;;;6.35;2.60;;;9.30;99.90;;;;;;5058345;28;20044;-91
2023/04/13 08:09:51;;;;;;;5.13;2.67;;;9.10;99.90;;;;;;5043947;28;20045;-92
2023/04/13 08:12:17;;;;;;;5.30;2.15;;;9.00;99.90;;;;;;5061377;28;20049;-91
2023/04/13 08:14:43;;;;;;;3.97;2.20;;;9.00;99.90;;;;;;5042678;28;20129;-91
2023/04/13 08:17:10;;;;;;;3.25;1.83;;;8.90;99.90;;;;;;5028083;28;20095;-91
2023/04/13 08:19:36;;;;;;;4.85;2.47;;;8.80;99.90;;;;;;5029455;28;20118;-92
2023/04/13 08:22:01;;;;;;;5.30;2.60;;;9.20;99.90;;;;;;5043714;28;20037;-90
2023/04/13 08:24:28;;;;;;;5.18;2.80;;;9.70;99.90;;;;;;5025905;28;20037;-91
2023/04/13 08:26:56;;;;;;;8.60;3.20;;;9.90;99.90;;;;;;5044272;28;20468;-91
2023/04/13 08:29:26;;;;;;;7.38;2.60;;;10.10;99.90;;;;;;5042919;28;20127;-91
2023/04/13 08:31:52;;;;;;;6.30;2.42;;;9.90;99.90;;;;;;5043405;28;20419;-91
2023/04/13 08:34:18;;;;;;;4.38;2.10;;;9.80;99.90;;;;;;5060505;28;20151;-90
2023/04/13 08:36:47;;;;;;;6.93;2.53;;;9.70;99.90;;;;;;5027278;28;20084;-90
2023/04/13 08:39:13;;;;;;;4.70;2.05;;;9.80;99.90;;;;;;5059994;28;20041;-91
2023/04/13 08:41:45;;;;;;;6.47;2.67;;;10.30;99.90;;;;;;5025824;28;20073;-91
2023/04/13 08:44:12;;;;;;;4.00;1.98;;;10.40;99.90;;;;;;5023625;28;20033;-90
2023/04/13 08:46:40;;;;;;;4.43;1.80;;;10.40;99.90;;;;;;5027482;28;20048;-92
2023/04/13 08:49:09;;;;;;;4.18;1.83;;;10.10;99.90;;;;;;5059088;28;20123;-90
2023/04/13 08:51:35;;;;;;;4.20;2.00;;;10.00;99.90;;;;;;5025498;28;20044;-91
2023/04/13 08:54:01;;;;;;;4.57;1.60;;;10.10;99.90;;;;;;5026500;28;20511;-91
2023/04/13 08:56:27;;;;;;;4.88;1.60;;;10.00;99.90;;;;;;5043877;28;20037;-91
2023/04/13 08:59:05;;;;;;;5.03;1.65;;;10.10;99.90;;;;;;5042134;28;20116;-91
2023/04/13 09:01:32;;;;;;;1.73;1.50;;;10.50;99.90;;;;;;5042749;28;20531;-91
2023/04/13 09:04:20;;;;;;;5.05;1.90;;;10.70;99.90;;;;;;5043654;28;20045;-91
2023/04/13 09:06:49;;;;;;;3.88;1.40;;;10.60;99.90;;;;;;5041418;28;20033;-91
2023/04/13 09:09:17;;;;;;;4.60;1.83;;;10.20;99.90;;;;;;5059605;28;20037;-92
2023/04/13 09:11:44;;;;;;;5.32;1.60;;;10.40;99.90;;;;;;5041613;28;20047;-90
2023/04/13 09:14:16;;;;;;;3.60;1.60;;;10.50;99.90;;;;;;5027141;28;20079;-91
2023/04/13 09:16:42;;;;;;;2.25;1.60;;;10.50;99.90;;;;;;5060679;28;20098;-91
2023/04/13 09:19:09;;;;;;;2.45;1.50;;;10.30;99.90;;;;;;5026614;28;20123;-91
2023/04/13 09:21:42;;;;;;;3.05;1.30;;;10.20;99.90;;;;;;5042614;28;20071;-91
2023/04/13 09:24:09;;;;;;;2.90;1.58;;;10.20;99.90;;;;;;5041636;28;20033;-91
2023/04/13 09:26:43;;;;;;;3.83;1.52;;;10.20;99.90;;;;;;5026725;28;20048;-91
2023/04/13 09:29:15;;;;;;;2.92;1.27;;;10.80;99.90;;;;;;5042474;28;20554;-91
2023/04/13 09:31:41;;;;;;;2.75;0.80;;;11.10;99.90;;;;;;5044272;28;20045;-92
2023/04/13 09:34:09;;;;;;;2.75;1.20;;;10.90;99.90;;;;;;5031157;28;20110;-92
2023/04/13 09:36:36;;;;;;;3.10;0.73;;;11.50;99.90;;;;;;5030079;28;20088;-91
2023/04/13 09:39:05;;;;;;;3.08;0.80;;;11.10;99.90;;;;;;5030470;28;20128;-91
2023/04/13 09:41:31;;;;;;;3.42;1.00;;;10.70;99.90;;;;;;5079226;28;20073;-91
2023/04/13 09:44:05;;;;;;;2.60;0.88;;;10.50;99.90;;;;;;5062536;28;20037;-90
2023/04/13 09:46:31;;;;;;;4.85;1.05;;;10.10;99.90;;;;;;5046627;28;20511;-92
2023/04/13 09:49:01;;;;;;;1.73;0.82;;;9.50;99.90;;;;;;5047379;28;20044;-90
2023/04/13 09:51:38;;;;;;;3.72;1.20;;;8.90;99.90;;;;;;5063829;28;20062;-90
2023/04/13 09:54:05;;;;;;;1.90;0.60;;;8.60;99.90;;;;;;5030011;28;20464;-91
2023/04/13 09:56:45;;;;;;;2.30;0.75;;;7.60;99.90;;;;;;5047789;28;20079;-90
2023/04/13 09:59:12;;;;;;;1.40;0.40;;;7.50;99.90;;;;;;5079003;28;20080;-89
2023/04/13 10:01:39;;;;;;;2.08;0.55;;;7.50;99.90;;;;;;5029792;28;20044;-90
2023/04/13 10:04:07;;;;;;;1.50;0.70;;;7.60;99.90;;;;;;5046585;28;20045;-90
2023/04/13 10:06:41;;;;;;;1.80;0.70;;;7.80;99.90;;;;;;5046339;28;20403;-90
2023/04/13 10:09:10;;;;;;;1.88;0.70;;;8.00;99.90;;;;;;5046579;28;20041;-90
2023/04/13 10:11:49;;;;;;;1.83;1.00;;;8.40;99.90;;;;;;5046979;28;20361;-90
2023/04/13 10:14:26;;;;;;;2.42;0.77;;;8.30;99.90;;;;;;5027709;28;20411;-90
2023/04/13 10:17:04;;;;;;;1.50;0.77;;;8.10;99.90;;;;;;5045689;28;20032;-89
2023/04/13 10:19:42;;;;;;;2.78;0.80;;;8.00;99.90;;;;;;5079686;28;20095;-90
2023/04/13 10:22:08;;;;;;;2.50;0.70;;;8.00;99.90;;;;;;5046696;28;20043;-90
2023/04/13 10:24:34;;;;;;;5.10;0.95;;;8.10;99.90;;;;;;5062399;28;20032;-91
2023/04/13 10:27:16;;;;;;;2.42;0.90;;;8.40;99.90;;;;;;5063645;28;20363;-90
2023/04/13 10:29:42;;;;;;;3.63;0.90;;;8.70;99.90;;;;;;5044719;28;20387;-90
2023/04/13 10:32:19;;;;;;;2.53;0.80;;;8.50;99.90;;;;;;5062863;28;20037;-90
2023/04/13 10:34:46;;;;;;;2.85;0.70;;;8.40;99.90;;;;;;5045776;28;20049;-90
2023/04/13 10:37:20;;;;;;;2.47;0.68;;;8.10;99.90;;;;;;5063127;28;20132;-92
2023/04/13 10:39:49;;;;;;;3.30;0.70;;;8.00;99.90;;;;;;5061583;28;20041;-91
2023/04/13 10:42:15;;;;;;;2.42;0.65;;;8.10;99.90;;;;;;5029578;28;20037;-89
2023/04/13 10:44:44;;;;;;;1.30;0.40;;;8.10;99.90;;;;;;5044490;28;20033;-91
2023/04/13 10:47:12;;;;;;;1.83;0.50;;;8.30;99.90;;;;;;5062547;28;20033;-91
2023/04/13 10:49:39;;;;;;;2.25;0.60;;;8.40;99.90;;;;;;5046133;28;20044;-90
2023/04/13 10:52:06;;;;;;;1.88;0.52;;;8.60;99.90;;;;;;5045160;28;20515;-90
2023/04/13 10:54:33;;;;;;;2.67;0.70;;;8.40;99.90;;;;;;5045496;28;20044;-90
2023/04/13 10:57:01;;;;;;;3.25;0.90;;;8.90;99.90;;;;;;5029574;28;20296;-89
2023/04/13 10:59:36;;;;;;;3.17;1.30;;;9.50;99.90;;;;;;5043333;28;20052;-90
2023/04/13 11:02:08;;;;;;;3.72;1.25;;;10.00;99.90;;;;;;5059858;28;20095;-89
2023/04/13 11:04:37;;;;;;;3.75;1.27;;;10.10;99.90;;;;;;5027789;28;20032;-89
2023/04/13 11:07:05;;;;;;;5.05;1.63;;;10.60;99.90;;;;;;5078344;28;20052;-89
2023/04/13 11:09:31;;;;;;;9.40;2.42;;;10.70;99.90;;;;;;5029289;28;20044;-90
2023/04/13 11:11:56;;;;;;;6.43;2.10;;;10.70;99.90;;;;;;5061645;28;20044;-89
2023/04/13 11:14:22;;;;;;;6.50;1.90;;;10.60;99.90;;;;;;5026507;28;20040;-89
2023/04/13 11:16:48;;;;;;;5.47;2.30;;;10.30;99.90;;;;;;5044976;28;20045;-90
2023/04/13 11:19:14;;;;;;;6.32;2.10;;;10.20;99.90;;;;;;5044520;28;20431;-90
2023/04/13 11:21:43;;;;;;;10.73;2.60;;;9.90;99.90;;;;;;5061608;28;20041;-89
2023/04/13 11:24:09;;;;;;;8.30;2.33;;;9.60;99.90;;;;;;5027794;28;20403;-89
2023/04/13 11:26:39;;;;;;;5.18;1.80;;;9.50;99.90;;;;;;5062942;28;20056;-90
2023/04/13 11:29:05;;;;;;;7.47;1.70;;;9.50;99.90;;;;;;5043631;28;20159;-89
2023/04/13 11:31:38;;;;;;;6.32;2.05;;;9.60;99.90;;;;;;5058943;28;20040;-89
2023/04/13 11:34:05;;;;;;;8.27;2.38;;;9.60;99.90;;;;;;5044584;28;20041;-88
2023/04/13 11:36:32;;;;;;;6.10;2.05;;;10.00;99.90;;;;;;5027133;28;20049;-90
2023/04/13 11:39:00;;;;;;;6.45;2.28;;;9.90;99.90;;;;;;5027416;28;20149;-90
2023/04/13 11:41:31;;;;;;;7.43;2.45;;;10.20;99.90;;;;;;5028223;28;20060;-90
2023/04/13 11:44:00;;;;;;;15.55;2.45;;;10.30;99.90;;;;;;5025524;28;20044;-89
2023/04/13 11:46:28;;;;;;;7.47;2.25;;;10.40;99.90;;;;;;5074850;28;20080;-90
2023/04/13 11:48:54;;;;;;;8.35;2.20;;;10.40;99.90;;;;;;5028037;28;20147;-90
2023/04/13 11:51:21;;;;;;;9.10;2.20;;;10.60;99.90;;;;;;5044705;28;20036;-90
2023/04/13 11:53:50;;;;;;;8.15;2.35;;;10.70;99.90;;;;;;5044099;28;20037;-90
2023/04/13 11:56:17;;;;;;;8.95;2.45;;;10.70;99.90;;;;;;5059491;28;20063;-90
2023/04/13 11:58:50;;;;;;;7.70;2.13;;;11.20;99.90;;;;;;5027449;28;20044;-91
2023/04/13 12:01:17;;;;;;;8.55;2.03;;;11.10;99.90;;;;;;5025653;28;20044;-91
2023/04/13 12:03:42;;;;;;;8.23;2.30;;;11.00;99.90;;;;;;5043489;28;20036;-90
2023/04/13 12:06:08;;;;;;;6.60;1.70;;;10.90;99.90;;;;;;5044899;28;20029;-90
2023/04/13 12:08:35;;;;;;;8.32;2.50;;;10.70;99.90;;;;;;5043786;28;20130;-91
2023/04/13 12:11:04;;;;;;;13.45;2.85;;;10.90;99.90;;;;;;5061277;28;20033;-91
2023/04/13 12:13:43;;;;;;;5.78;2.10;;;11.20;99.90;;;;;;5059996;28;20090;-91
2023/04/13 12:16:11;;;;;;;9.25;1.83;;;11.30;99.90;;;;;;5046533;28;20480;-91
2023/04/13 12:18:45;;;;;;;6.35;1.60;;;11.20;99.90;;;;;;5027897;28;20055;-90
2023/04/13 12:21:18;;;;;;;7.00;1.67;;;11.00;99.90;;;;;;5075718;28;20328;-91
2023/04/13 12:23:57;;;;;;;5.43;1.85;;;11.00;99.90;;;;;;5059067;28;20086;-91
2023/04/13 12:26:30;;;;;;;3.72;1.40;;;10.90;99.90;;;;;;5077709;28;20437;-90
2023/04/13 12:28:56;;;;;;;6.20;1.40;;;10.90;99.90;;;;;;5060380;28;20048;-91
2023/04/13 12:31:22;;;;;;;5.53;1.75;;;10.70;99.90;;;;;;5043028;28;20040;-91
2023/04/13 12:33:47;;;;;;;8.73;1.90;;;10.50;99.90;;;;;;5027723;28;20052;-91
2023/04/13 12:36:13;;;;;;;9.00;1.95;;;10.30;99.90;;;;;;5043667;28;20049;-91
2023/04/13 12:38:39;;;;;;;10.15;2.60;;;10.50;99.90;;;;;;5027251;28;20044;-91
2023/04/13 12:41:08;;;;;;;7.50;1.70;;;10.70;99.90;;;;;;5026860;28;20550;-90
2023/04/13 12:43:35;;;;;;;7.60;2.08;;;10.70;99.90;;;;;;5041853;28;20053;-91
2023/04/13 12:46:01;;;;;;;10.50;2.47;;;10.60;99.90;;;;;;5027270;28;20037;-90
2023/04/13 12:48:27;;;;;;;8.27;1.80;;;10.60;99.90;;;;;;5044412;28;20040;-91
2023/04/13 12:50:53;;;;;;;10.13;2.38;;;10.60;99.90;;;;;;5042262;28;20040;-91
2023/04/13 12:53:19;;;;;;;9.32;1.92;;;10.50;99.90;;;;;;5030379;28;20056;-90
2023/04/13 12:55:45;;;;;;;10.00;2.17;;;10.50;99.90;;;;;;5027165;28;20048;-91
2023/04/13 12:58:11;;;;;;;10.60;2.10;;;10.50;99.90;;;;;;5042595;28;20057;-91
2023/04/13 13:00:36;;;;;;;11.25;2.20;;;10.30;99.90;;;;;;5042309;28;20051;-91